sensor_id;sensor_type;location;lat;lon;timestamp;P1;durP1;ratioP1;P2;durP2;ratioP2
52608;SDS011;38503;48.544;12.142;2023-03-23T00:02:19;9.30;;;6.03;;
52608;SDS011;38503;48.544;12.142;2023-03-23T00:04:48;7.97;;;5.90;;
52608;SDS011;38503;48.544;12.142;2023-03-23T00:07:15;9.03;;;6.00;;
52608;SDS011;38503;48.544;12.142;2023-03-23T00:09:46;10.03;;;6.00;;
52608;SDS011;38503;48.544;12.142;2023-03-23T00:12:29;6.00;;;5.20;;
52608;SDS011;38503;48.544;12.142;2023-03-23T00:14:59;8.00;;;6.27;;
52608;SDS011;38503;48.544;12.142;2023-03-23T00:17:26;7.17;;;6.40;;
52608;SDS011;38503;48.544;12.142;2023-03-23T00:19:53;9.00;;;6.37;;
52608;SDS011;38503;48.544;12.142;2023-03-23T00:22:18;7.07;;;5.90;;
52608;SDS011;38503;48.544;12.142;2023-03-23T00:24:46;8.47;;;5.93;;
52608;SDS011;38503;48.544;12.142;2023-03-23T00:27:15;11.10;;;5.63;;
52608;SDS011;38503;48.544;12.142;2023-03-23T00:29:41;5.87;;;5.10;;
52608;SDS011;38503;48.544;12.142;2023-03-23T00:32:10;7.33;;;5.60;;
52608;SDS011;38503;48.544;12.142;2023-03-23T00:34:38;6.20;;;5.47;;
52608;SDS011;38503;48.544;12.142;2023-03-23T00:37:08;9.60;;;5.90;;
52608;SDS011;38503;48.544;12.142;2023-03-23T00:39:35;7.57;;;5.83;;
52608;SDS011;38503;48.544;12.142;2023-03-23T00:42:02;10.27;;;5.60;;
52608;SDS011;38503;48.544;12.142;2023-03-23T00:44:28;7.47;;;5.67;;
52608;SDS011;38503;48.544;12.142;2023-03-23T00:46:55;6.30;;;5.60;;
52608;SDS011;38503;48.544;12.142;2023-03-23T00:49:22;9.97;;;5.60;;
52608;SDS011;38503;48.544;12.142;2023-03-23T00:51:52;6.30;;;5.67;;
52608;SDS011;38503;48.544;12.142;2023-03-23T00:54:19;8.33;;;5.57;;
52608;SDS011;38503;48.544;12.142;2023-03-23T00:56:46;7.93;;;6.07;;
52608;SDS011;38503;48.544;12.142;2023-03-23T00:59:12;8.23;;;5.23;;
52608;SDS011;38503;48.544;12.142;2023-03-23T01:01:38;8.00;;;5.53;;
52608;SDS011;38503;48.544;12.142;2023-03-23T01:04:03;6.73;;;5.23;;
52608;SDS011;38503;48.544;12.142;2023-03-23T01:06:31;10.57;;;5.37;;
52608;SDS011;38503;48.544;12.142;2023-03-23T01:09:00;6.43;;;5.60;;
52608;SDS011;38503;48.544;12.142;2023-03-23T01:11:28;7.90;;;5.67;;
52608;SDS011;38503;48.544;12.142;2023-03-23T01:13:54;9.33;;;6.63;;
52608;SDS011;38503;48.544;12.142;2023-03-23T01:16:20;8.57;;;5.70;;
52608;SDS011;38503;48.544;12.142;2023-03-23T01:18:46;8.90;;;5.60;;
52608;SDS011;38503;48.544;12.142;2023-03-23T01:21:13;7.00;;;5.60;;
52608;SDS011;38503;48.544;12.142;2023-03-23T01:23:41;6.43;;;5.50;;
52608;SDS011;38503;48.544;12.142;2023-03-23T01:26:12;7.67;;;5.60;;
52608;SDS011;38503;48.544;12.142;2023-03-23T01:28:45;6.80;;;5.50;;
52608;SDS011;38503;48.544;12.142;2023-03-23T01:31:11;7.37;;;5.97;;
52608;SDS011;38503;48.544;12.142;2023-03-23T01:33:40;6.37;;;5.53;;
52608;SDS011;38503;48.544;12.142;2023-03-23T01:36:16;7.13;;;5.83;;
52608;SDS011;38503;48.544;12.142;2023-03-23T01:38:47;6.97;;;5.40;;
52608;SDS011;38503;48.544;12.142;2023-03-23T01:41:15;7.80;;;5.90;;
52608;SDS011;38503;48.544;12.142;2023-03-23T01:44:02;6.17;;;4.97;;
52608;SDS011;38503;48.544;12.142;2023-03-23T01:46:31;7.73;;;5.60;;
52608;SDS011;38503;48.544;12.142;2023-03-23T01:49:00;8.00;;;5.27;;
52608;SDS011;38503;48.544;12.142;2023-03-23T01:51:57;9.73;;;5.73;;
52608;SDS011;38503;48.544;12.142;2023-03-23T01:54:27;7.90;;;5.33;;
52608;SDS011;38503;48.544;12.142;2023-03-23T01:59:24;8.17;;;5.40;;
52608;SDS011;38503;48.544;12.142;2023-03-23T02:01:53;8.23;;;5.30;;
52608;SDS011;38503;48.544;12.142;2023-03-23T02:04:20;7.80;;;6.03;;
52608;SDS011;38503;48.544;12.142;2023-03-23T02:06:50;11.47;;;5.53;;
52608;SDS011;38503;48.544;12.142;2023-03-23T02:09:18;5.90;;;5.20;;
52608;SDS011;38503;48.544;12.142;2023-03-23T02:11:44;7.87;;;5.50;;
52608;SDS011;38503;48.544;12.142;2023-03-23T02:14:12;6.70;;;5.53;;
52608;SDS011;38503;48.544;12.142;2023-03-23T02:22:34;6.80;;;5.60;;
52608;SDS011;38503;48.544;12.142;2023-03-23T02:33:55;7.17;;;5.83;;
52608;SDS011;38503;48.544;12.142;2023-03-23T02:36:35;11.10;;;5.60;;
52608;SDS011;38503;48.544;12.142;2023-03-23T02:41:58;6.80;;;5.73;;
52608;SDS011;38503;48.544;12.142;2023-03-23T02:44:29;8.93;;;5.87;;
52608;SDS011;38503;48.544;12.142;2023-03-23T02:46:59;8.00;;;5.30;;
52608;SDS011;38503;48.544;12.142;2023-03-23T02:49:27;7.70;;;5.87;;
52608;SDS011;38503;48.544;12.142;2023-03-23T02:51:57;9.80;;;5.77;;
52608;SDS011;38503;48.544;12.142;2023-03-23T02:54:24;13.67;;;6.10;;
52608;SDS011;38503;48.544;12.142;2023-03-23T02:56:52;8.83;;;5.73;;
52608;SDS011;38503;48.544;12.142;2023-03-23T02:59:19;7.93;;;6.00;;
52608;SDS011;38503;48.544;12.142;2023-03-23T03:01:48;10.13;;;5.90;;
52608;SDS011;38503;48.544;12.142;2023-03-23T03:04:21;10.33;;;6.40;;
52608;SDS011;38503;48.544;12.142;2023-03-23T03:07:00;6.97;;;5.40;;
52608;SDS011;38503;48.544;12.142;2023-03-23T03:12:21;6.47;;;5.60;;
52608;SDS011;38503;48.544;12.142;2023-03-23T03:15:24;7.43;;;5.40;;
52608;SDS011;38503;48.544;12.142;2023-03-23T03:20:47;7.77;;;5.47;;
52608;SDS011;38503;48.544;12.142;2023-03-23T03:23:21;7.70;;;5.57;;
52608;SDS011;38503;48.544;12.142;2023-03-23T03:25:49;6.97;;;5.67;;
52608;SDS011;38503;48.544;12.142;2023-03-23T03:28:17;9.17;;;6.13;;
52608;SDS011;38503;48.544;12.142;2023-03-23T03:30:47;10.07;;;6.67;;
52608;SDS011;38503;48.544;12.142;2023-03-23T03:33:19;7.47;;;5.97;;
52608;SDS011;38503;48.544;12.142;2023-03-23T03:35:51;6.70;;;5.77;;
52608;SDS011;38503;48.544;12.142;2023-03-23T03:38:19;12.47;;;8.90;;
52608;SDS011;38503;48.544;12.142;2023-03-23T03:40:45;8.67;;;6.00;;
52608;SDS011;38503;48.544;12.142;2023-03-23T03:43:11;8.70;;;6.80;;
52608;SDS011;38503;48.544;12.142;2023-03-23T03:45:37;7.27;;;5.87;;
52608;SDS011;38503;48.544;12.142;2023-03-23T03:48:02;6.80;;;6.07;;
52608;SDS011;38503;48.544;12.142;2023-03-23T03:50:28;12.83;;;8.43;;
52608;SDS011;38503;48.544;12.142;2023-03-23T03:52:55;9.10;;;6.67;;
52608;SDS011;38503;48.544;12.142;2023-03-23T03:55:20;8.40;;;5.83;;
52608;SDS011;38503;48.544;12.142;2023-03-23T03:57:46;6.97;;;5.87;;
52608;SDS011;38503;48.544;12.142;2023-03-23T04:00:13;7.87;;;6.10;;
52608;SDS011;38503;48.544;12.142;2023-03-23T04:02:40;7.03;;;5.70;;
52608;SDS011;38503;48.544;12.142;2023-03-23T04:05:07;8.50;;;6.30;;
52608;SDS011;38503;48.544;12.142;2023-03-23T04:07:35;11.17;;;5.60;;
52608;SDS011;38503;48.544;12.142;2023-03-23T04:10:04;8.03;;;6.30;;
52608;SDS011;38503;48.544;12.142;2023-03-23T04:12:32;7.77;;;6.17;;
52608;SDS011;38503;48.544;12.142;2023-03-23T04:14:58;6.53;;;5.83;;
52608;SDS011;38503;48.544;12.142;2023-03-23T04:17:24;8.83;;;5.90;;
52608;SDS011;38503;48.544;12.142;2023-03-23T04:19:53;7.23;;;5.97;;
52608;SDS011;38503;48.544;12.142;2023-03-23T04:22:22;8.80;;;5.83;;
52608;SDS011;38503;48.544;12.142;2023-03-23T04:24:55;8.53;;;6.10;;
52608;SDS011;38503;48.544;12.142;2023-03-23T04:27:24;8.00;;;5.93;;
52608;SDS011;38503;48.544;12.142;2023-03-23T04:29:53;9.47;;;6.80;;
52608;SDS011;38503;48.544;12.142;2023-03-23T04:32:23;10.63;;;6.50;;
52608;SDS011;38503;48.544;12.142;2023-03-23T04:34:53;8.10;;;6.37;;
52608;SDS011;38503;48.544;12.142;2023-03-23T04:37:21;7.37;;;5.33;;
52608;SDS011;38503;48.544;12.142;2023-03-23T04:39:51;6.70;;;5.40;;
52608;SDS011;38503;48.544;12.142;2023-03-23T04:42:26;10.10;;;5.63;;
52608;SDS011;38503;48.544;12.142;2023-03-23T04:44:58;7.70;;;5.47;;
52608;SDS011;38503;48.544;12.142;2023-03-23T04:47:25;9.03;;;5.50;;
52608;SDS011;38503;48.544;12.142;2023-03-23T04:49:57;6.47;;;5.53;;
52608;SDS011;38503;48.544;12.142;2023-03-23T04:52:24;6.47;;;5.73;;
52608;SDS011;38503;48.544;12.142;2023-03-23T04:54:51;7.40;;;5.43;;
52608;SDS011;38503;48.544;12.142;2023-03-23T04:57:17;9.10;;;6.10;;
52608;SDS011;38503;48.544;12.142;2023-03-23T04:59:43;6.50;;;5.43;;
52608;SDS011;38503;48.544;12.142;2023-03-23T05:02:09;6.47;;;5.57;;
52608;SDS011;38503;48.544;12.142;2023-03-23T05:04:36;7.17;;;5.70;;
52608;SDS011;38503;48.544;12.142;2023-03-23T05:07:02;7.17;;;5.53;;
52608;SDS011;38503;48.544;12.142;2023-03-23T05:09:29;7.93;;;5.97;;
52608;SDS011;38503;48.544;12.142;2023-03-23T05:11:55;6.00;;;5.40;;
52608;SDS011;38503;48.544;12.142;2023-03-23T05:14:20;7.93;;;6.13;;
52608;SDS011;38503;48.544;12.142;2023-03-23T05:16:46;7.40;;;5.80;;
52608;SDS011;38503;48.544;12.142;2023-03-23T05:19:14;5.90;;;5.30;;
52608;SDS011;38503;48.544;12.142;2023-03-23T05:21:40;5.80;;;5.20;;
52608;SDS011;38503;48.544;12.142;2023-03-23T05:24:06;6.97;;;5.50;;
52608;SDS011;38503;48.544;12.142;2023-03-23T05:26:31;7.30;;;5.50;;
52608;SDS011;38503;48.544;12.142;2023-03-23T05:28:57;7.63;;;5.33;;
52608;SDS011;38503;48.544;12.142;2023-03-23T05:31:24;7.23;;;5.27;;
52608;SDS011;38503;48.544;12.142;2023-03-23T05:33:50;8.50;;;5.03;;
52608;SDS011;38503;48.544;12.142;2023-03-23T05:36:16;5.27;;;4.77;;
52608;SDS011;38503;48.544;12.142;2023-03-23T05:38:42;6.53;;;5.30;;
52608;SDS011;38503;48.544;12.142;2023-03-23T05:41:19;6.57;;;5.33;;
52608;SDS011;38503;48.544;12.142;2023-03-23T05:43:46;5.40;;;4.77;;
52608;SDS011;38503;48.544;12.142;2023-03-23T05:46:11;5.87;;;5.27;;
52608;SDS011;38503;48.544;12.142;2023-03-23T05:48:37;5.90;;;5.30;;
52608;SDS011;38503;48.544;12.142;2023-03-23T05:51:03;6.90;;;5.77;;
52608;SDS011;38503;48.544;12.142;2023-03-23T05:53:29;6.20;;;5.20;;
52608;SDS011;38503;48.544;12.142;2023-03-23T05:56:02;6.40;;;4.90;;
52608;SDS011;38503;48.544;12.142;2023-03-23T05:58:28;5.70;;;5.03;;
52608;SDS011;38503;48.544;12.142;2023-03-23T06:00:54;6.83;;;4.90;;
52608;SDS011;38503;48.544;12.142;2023-03-23T06:03:20;6.67;;;4.90;;
52608;SDS011;38503;48.544;12.142;2023-03-23T06:05:47;6.37;;;5.63;;
52608;SDS011;38503;48.544;12.142;2023-03-23T06:08:13;6.67;;;5.47;;
52608;SDS011;38503;48.544;12.142;2023-03-23T06:10:39;8.70;;;5.47;;
52608;SDS011;38503;48.544;12.142;2023-03-23T06:13:05;6.47;;;5.10;;
52608;SDS011;38503;48.544;12.142;2023-03-23T06:15:31;7.67;;;5.80;;
52608;SDS011;38503;48.544;12.142;2023-03-23T06:18:03;7.53;;;5.53;;
52608;SDS011;38503;48.544;12.142;2023-03-23T06:20:30;6.13;;;5.40;;
52608;SDS011;38503;48.544;12.142;2023-03-23T06:22:57;7.53;;;5.33;;
52608;SDS011;38503;48.544;12.142;2023-03-23T06:25:23;5.90;;;5.30;;
52608;SDS011;38503;48.544;12.142;2023-03-23T06:27:49;6.50;;;5.20;;
52608;SDS011;38503;48.544;12.142;2023-03-23T06:30:17;9.27;;;4.97;;
52608;SDS011;38503;48.544;12.142;2023-03-23T06:32:43;7.60;;;5.23;;
52608;SDS011;38503;48.544;12.142;2023-03-23T06:35:11;6.23;;;5.20;;
52608;SDS011;38503;48.544;12.142;2023-03-23T06:37:38;9.77;;;5.47;;
52608;SDS011;38503;48.544;12.142;2023-03-23T06:40:03;7.03;;;5.83;;
52608;SDS011;38503;48.544;12.142;2023-03-23T06:42:33;6.00;;;4.90;;
52608;SDS011;38503;48.544;12.142;2023-03-23T06:44:59;7.67;;;5.70;;
52608;SDS011;38503;48.544;12.142;2023-03-23T06:47:26;6.43;;;5.70;;
52608;SDS011;38503;48.544;12.142;2023-03-23T06:49:55;6.10;;;5.17;;
52608;SDS011;38503;48.544;12.142;2023-03-23T06:52:21;9.10;;;5.07;;
52608;SDS011;38503;48.544;12.142;2023-03-23T06:54:48;8.20;;;4.63;;
52608;SDS011;38503;48.544;12.142;2023-03-23T06:57:15;6.17;;;5.03;;
52608;SDS011;38503;48.544;12.142;2023-03-23T06:59:42;7.63;;;5.23;;
52608;SDS011;38503;48.544;12.142;2023-03-23T07:02:11;8.87;;;5.20;;
52608;SDS011;38503;48.544;12.142;2023-03-23T07:04:41;8.57;;;4.83;;
52608;SDS011;38503;48.544;12.142;2023-03-23T07:07:07;5.27;;;4.20;;
52608;SDS011;38503;48.544;12.142;2023-03-23T07:09:35;6.80;;;4.63;;
52608;SDS011;38503;48.544;12.142;2023-03-23T07:12:01;6.60;;;5.60;;
52608;SDS011;38503;48.544;12.142;2023-03-23T07:14:28;10.90;;;5.73;;
52608;SDS011;38503;48.544;12.142;2023-03-23T07:16:54;9.07;;;4.87;;
52608;SDS011;38503;48.544;12.142;2023-03-23T07:19:20;5.90;;;4.77;;
52608;SDS011;38503;48.544;12.142;2023-03-23T07:21:46;8.27;;;5.07;;
52608;SDS011;38503;48.544;12.142;2023-03-23T07:24:12;8.83;;;5.33;;
52608;SDS011;38503;48.544;12.142;2023-03-23T07:26:41;5.20;;;4.67;;
52608;SDS011;38503;48.544;12.142;2023-03-23T07:29:08;7.93;;;5.70;;
52608;SDS011;38503;48.544;12.142;2023-03-23T07:31:34;7.67;;;5.73;;
52608;SDS011;38503;48.544;12.142;2023-03-23T07:34:01;8.40;;;5.67;;
52608;SDS011;38503;48.544;12.142;2023-03-23T07:36:28;8.40;;;5.07;;
52608;SDS011;38503;48.544;12.142;2023-03-23T07:38:54;9.47;;;5.43;;
52608;SDS011;38503;48.544;12.142;2023-03-23T07:41:20;7.17;;;5.70;;
52608;SDS011;38503;48.544;12.142;2023-03-23T07:43:46;8.97;;;5.40;;
52608;SDS011;38503;48.544;12.142;2023-03-23T07:46:12;7.07;;;5.87;;
52608;SDS011;38503;48.544;12.142;2023-03-23T07:48:38;7.33;;;5.13;;
52608;SDS011;38503;48.544;12.142;2023-03-23T07:51:05;7.33;;;5.67;;
52608;SDS011;38503;48.544;12.142;2023-03-23T07:53:32;6.90;;;5.70;;
52608;SDS011;38503;48.544;12.142;2023-03-23T07:55:59;10.57;;;5.80;;
52608;SDS011;38503;48.544;12.142;2023-03-23T07:58:25;7.73;;;5.53;;
52608;SDS011;38503;48.544;12.142;2023-03-23T08:00:51;8.40;;;5.27;;
52608;SDS011;38503;48.544;12.142;2023-03-23T08:03:18;7.77;;;5.00;;
52608;SDS011;38503;48.544;12.142;2023-03-23T08:05:44;5.50;;;4.73;;
52608;SDS011;38503;48.544;12.142;2023-03-23T08:08:10;10.37;;;5.33;;
52608;SDS011;38503;48.544;12.142;2023-03-23T08:10:36;8.77;;;5.17;;
52608;SDS011;38503;48.544;12.142;2023-03-23T08:13:02;13.77;;;5.40;;
52608;SDS011;38503;48.544;12.142;2023-03-23T08:15:28;11.53;;;7.80;;
52608;SDS011;38503;48.544;12.142;2023-03-23T08:17:54;12.23;;;5.73;;
52608;SDS011;38503;48.544;12.142;2023-03-23T08:20:20;6.87;;;5.47;;
52608;SDS011;38503;48.544;12.142;2023-03-23T08:22:54;10.63;;;5.73;;
52608;SDS011;38503;48.544;12.142;2023-03-23T08:25:21;8.20;;;5.10;;
52608;SDS011;38503;48.544;12.142;2023-03-23T08:27:47;8.27;;;5.03;;
52608;SDS011;38503;48.544;12.142;2023-03-23T08:30:18;10.53;;;5.27;;
52608;SDS011;38503;48.544;12.142;2023-03-23T08:32:46;5.93;;;5.33;;
52608;SDS011;38503;48.544;12.142;2023-03-23T08:35:12;9.23;;;5.63;;
52608;SDS011;38503;48.544;12.142;2023-03-23T08:37:39;10.93;;;5.80;;
52608;SDS011;38503;48.544;12.142;2023-03-23T08:40:07;6.10;;;5.50;;
52608;SDS011;38503;48.544;12.142;2023-03-23T08:42:37;10.63;;;5.57;;
52608;SDS011;38503;48.544;12.142;2023-03-23T08:45:07;9.43;;;5.73;;
52608;SDS011;38503;48.544;12.142;2023-03-23T08:47:35;8.23;;;5.47;;
52608;SDS011;38503;48.544;12.142;2023-03-23T08:50:01;9.00;;;5.03;;
52608;SDS011;38503;48.544;12.142;2023-03-23T08:52:28;5.60;;;5.10;;
52608;SDS011;38503;48.544;12.142;2023-03-23T08:54:54;6.20;;;5.37;;
52608;SDS011;38503;48.544;12.142;2023-03-23T08:57:22;8.80;;;5.80;;
52608;SDS011;38503;48.544;12.142;2023-03-23T08:59:49;7.37;;;5.23;;
52608;SDS011;38503;48.544;12.142;2023-03-23T09:02:15;6.93;;;5.40;;
52608;SDS011;38503;48.544;12.142;2023-03-23T09:04:41;6.10;;;5.23;;
52608;SDS011;38503;48.544;12.142;2023-03-23T09:07:10;9.67;;;5.73;;
52608;SDS011;38503;48.544;12.142;2023-03-23T09:09:39;6.57;;;5.23;;
52608;SDS011;38503;48.544;12.142;2023-03-23T09:12:06;6.20;;;5.00;;
52608;SDS011;38503;48.544;12.142;2023-03-23T09:14:34;11.43;;;5.33;;
52608;SDS011;38503;48.544;12.142;2023-03-23T09:17:05;10.00;;;5.37;;
52608;SDS011;38503;48.544;12.142;2023-03-23T09:19:32;12.63;;;5.47;;
52608;SDS011;38503;48.544;12.142;2023-03-23T09:21:59;10.63;;;5.40;;
52608;SDS011;38503;48.544;12.142;2023-03-23T09:24:25;8.30;;;5.50;;
52608;SDS011;38503;48.544;12.142;2023-03-23T09:26:52;9.20;;;5.17;;
52608;SDS011;38503;48.544;12.142;2023-03-23T09:29:19;7.47;;;4.90;;
52608;SDS011;38503;48.544;12.142;2023-03-23T09:31:46;12.20;;;5.33;;
52608;SDS011;38503;48.544;12.142;2023-03-23T09:34:15;6.87;;;5.07;;
52608;SDS011;38503;48.544;12.142;2023-03-23T09:36:42;6.07;;;4.60;;
52608;SDS011;38503;48.544;12.142;2023-03-23T09:39:08;9.17;;;4.87;;
52608;SDS011;38503;48.544;12.142;2023-03-23T09:50:20;7.20;;;4.20;;
52608;SDS011;38503;48.544;12.142;2023-03-23T09:52:55;4.30;;;3.20;;
52608;SDS011;38503;48.544;12.142;2023-03-23T09:55:24;4.70;;;3.23;;
52608;SDS011;38503;48.544;12.142;2023-03-23T10:00:47;5.27;;;3.20;;
52608;SDS011;38503;48.544;12.142;2023-03-23T10:03:42;5.20;;;3.47;;
52608;SDS011;38503;48.544;12.142;2023-03-23T10:06:10;3.40;;;3.10;;
52608;SDS011;38503;48.544;12.142;2023-03-23T10:08:39;5.63;;;3.13;;
52608;SDS011;38503;48.544;12.142;2023-03-23T10:19:53;2.73;;;2.50;;
52608;SDS011;38503;48.544;12.142;2023-03-23T10:22:34;4.53;;;2.77;;
52608;SDS011;38503;48.544;12.142;2023-03-23T10:30:21;4.60;;;2.57;;
52608;SDS011;38503;48.544;12.142;2023-03-23T10:32:52;3.67;;;2.33;;
52608;SDS011;38503;48.544;12.142;2023-03-23T10:35:25;4.03;;;2.43;;
52608;SDS011;38503;48.544;12.142;2023-03-23T10:38:01;3.87;;;2.63;;
52608;SDS011;38503;48.544;12.142;2023-03-23T10:40:56;3.23;;;2.30;;
52608;SDS011;38503;48.544;12.142;2023-03-23T10:43:39;2.53;;;2.30;;
52608;SDS011;38503;48.544;12.142;2023-03-23T10:49:24;5.50;;;2.47;;
52608;SDS011;38503;48.544;12.142;2023-03-23T10:52:03;4.93;;;2.40;;
52608;SDS011;38503;48.544;12.142;2023-03-23T10:55:35;3.60;;;2.30;;
52608;SDS011;38503;48.544;12.142;2023-03-23T10:57:45;2.70;;;2.17;;
52608;SDS011;38503;48.544;12.142;2023-03-23T11:00:24;2.67;;;2.47;;
52608;SDS011;38503;48.544;12.142;2023-03-23T11:02:59;2.60;;;2.30;;
52608;SDS011;38503;48.544;12.142;2023-03-23T11:05:49;3.37;;;2.50;;
52608;SDS011;38503;48.544;12.142;2023-03-23T11:08:19;3.07;;;2.60;;
52608;SDS011;38503;48.544;12.142;2023-03-23T11:13:20;2.70;;;2.50;;
52608;SDS011;38503;48.544;12.142;2023-03-23T11:15:52;2.60;;;2.40;;
52608;SDS011;38503;48.544;12.142;2023-03-23T11:18:23;4.50;;;2.50;;
52608;SDS011;38503;48.544;12.142;2023-03-23T11:20:55;2.57;;;2.20;;
52608;SDS011;38503;48.544;12.142;2023-03-23T11:23:24;3.03;;;2.47;;
52608;SDS011;38503;48.544;12.142;2023-03-23T11:25:56;2.60;;;2.40;;
52608;SDS011;38503;48.544;12.142;2023-03-23T11:28:29;4.70;;;2.60;;
52608;SDS011;38503;48.544;12.142;2023-03-23T11:30:58;3.60;;;2.40;;
52608;SDS011;38503;48.544;12.142;2023-03-23T11:33:47;5.63;;;2.80;;
52608;SDS011;38503;48.544;12.142;2023-03-23T11:36:18;2.97;;;2.67;;
52608;SDS011;38503;48.544;12.142;2023-03-23T11:38:45;3.00;;;2.27;;
52608;SDS011;38503;48.544;12.142;2023-03-23T11:41:12;4.40;;;2.43;;
52608;SDS011;38503;48.544;12.142;2023-03-23T11:43:44;3.07;;;2.40;;
52608;SDS011;38503;48.544;12.142;2023-03-23T11:46:13;3.30;;;2.40;;
52608;SDS011;38503;48.544;12.142;2023-03-23T11:48:58;4.50;;;2.60;;
52608;SDS011;38503;48.544;12.142;2023-03-23T11:54:48;4.07;;;2.30;;
52608;SDS011;38503;48.544;12.142;2023-03-23T11:57:22;3.17;;;2.60;;
52608;SDS011;38503;48.544;12.142;2023-03-23T11:59:49;4.90;;;2.50;;
52608;SDS011;38503;48.544;12.142;2023-03-23T12:02:26;2.73;;;2.00;;
52608;SDS011;38503;48.544;12.142;2023-03-23T12:10:27;4.30;;;2.60;;
52608;SDS011;38503;48.544;12.142;2023-03-23T12:21:32;2.23;;;2.03;;
52608;SDS011;38503;48.544;12.142;2023-03-23T12:35:45;2.37;;;2.10;;
52608;SDS011;38503;48.544;12.142;2023-03-23T12:41:17;2.73;;;2.20;;
52608;SDS011;38503;48.544;12.142;2023-03-23T12:54:36;2.90;;;2.50;;
52608;SDS011;38503;48.544;12.142;2023-03-23T12:57:12;4.27;;;2.63;;
52608;SDS011;38503;48.544;12.142;2023-03-23T13:05:12;4.73;;;2.40;;
52608;SDS011;38503;48.544;12.142;2023-03-23T13:07:59;3.97;;;2.57;;
52608;SDS011;38503;48.544;12.142;2023-03-23T13:10:45;3.47;;;2.90;;
52608;SDS011;38503;48.544;12.142;2023-03-23T13:13:15;4.67;;;3.67;;
52608;SDS011;38503;48.544;12.142;2023-03-23T13:15:46;3.40;;;3.00;;
52608;SDS011;38503;48.544;12.142;2023-03-23T13:18:19;4.53;;;2.87;;
52608;SDS011;38503;48.544;12.142;2023-03-23T13:23:34;3.33;;;2.60;;
52608;SDS011;38503;48.544;12.142;2023-03-23T13:26:13;4.10;;;2.43;;
52608;SDS011;38503;48.544;12.142;2023-03-23T13:31:34;5.63;;;2.30;;
52608;SDS011;38503;48.544;12.142;2023-03-23T13:34:03;4.87;;;2.37;;
52608;SDS011;38503;48.544;12.142;2023-03-23T13:36:42;3.00;;;2.30;;
52608;SDS011;38503;48.544;12.142;2023-03-23T13:39:34;3.30;;;2.70;;
52608;SDS011;38503;48.544;12.142;2023-03-23T13:49:58;3.67;;;2.10;;
52608;SDS011;38503;48.544;12.142;2023-03-23T13:58:08;2.77;;;2.10;;
52608;SDS011;38503;48.544;12.142;2023-03-23T14:00:45;2.30;;;2.10;;
52608;SDS011;38503;48.544;12.142;2023-03-23T14:03:26;3.30;;;2.50;;
52608;SDS011;38503;48.544;12.142;2023-03-23T14:08:39;2.80;;;2.13;;
52608;SDS011;38503;48.544;12.142;2023-03-23T14:16:22;2.33;;;1.80;;
52608;SDS011;38503;48.544;12.142;2023-03-23T14:18:59;3.60;;;2.17;;
52608;SDS011;38503;48.544;12.142;2023-03-23T14:24:24;3.07;;;2.40;;
52608;SDS011;38503;48.544;12.142;2023-03-23T14:29:30;2.57;;;2.20;;
52608;SDS011;38503;48.544;12.142;2023-03-23T14:31:57;2.67;;;2.17;;
52608;SDS011;38503;48.544;12.142;2023-03-23T14:34:25;2.43;;;2.07;;
52608;SDS011;38503;48.544;12.142;2023-03-23T14:36:53;2.77;;;2.50;;
52608;SDS011;38503;48.544;12.142;2023-03-23T14:42:13;6.27;;;2.50;;
52608;SDS011;38503;48.544;12.142;2023-03-23T14:44:45;2.30;;;2.10;;
52608;SDS011;38503;48.544;12.142;2023-03-23T14:47:23;5.30;;;2.40;;
52608;SDS011;38503;48.544;12.142;2023-03-23T14:49:53;2.93;;;2.40;;
52608;SDS011;38503;48.544;12.142;2023-03-23T14:52:22;2.50;;;2.20;;
52608;SDS011;38503;48.544;12.142;2023-03-23T14:54:49;4.03;;;2.27;;
52608;SDS011;38503;48.544;12.142;2023-03-23T14:57:33;2.87;;;2.30;;
52608;SDS011;38503;48.544;12.142;2023-03-23T14:59:59;5.63;;;2.40;;
52608;SDS011;38503;48.544;12.142;2023-03-23T15:02:27;2.83;;;2.30;;
52608;SDS011;38503;48.544;12.142;2023-03-23T15:04:57;2.37;;;2.10;;
52608;SDS011;38503;48.544;12.142;2023-03-23T15:07:29;3.87;;;2.40;;
52608;SDS011;38503;48.544;12.142;2023-03-23T15:09:58;3.30;;;2.10;;
52608;SDS011;38503;48.544;12.142;2023-03-23T15:12:27;2.70;;;2.20;;
52608;SDS011;38503;48.544;12.142;2023-03-23T15:14:56;3.43;;;2.00;;
52608;SDS011;38503;48.544;12.142;2023-03-23T15:17:29;3.30;;;2.43;;
52608;SDS011;38503;48.544;12.142;2023-03-23T15:20:07;2.87;;;2.20;;
52608;SDS011;38503;48.544;12.142;2023-03-23T15:22:34;2.83;;;2.20;;
52608;SDS011;38503;48.544;12.142;2023-03-23T15:27:39;2.90;;;1.70;;
52608;SDS011;38503;48.544;12.142;2023-03-23T15:33:21;2.93;;;2.20;;
52608;SDS011;38503;48.544;12.142;2023-03-23T15:35:47;4.83;;;2.30;;
52608;SDS011;38503;48.544;12.142;2023-03-23T15:38:20;2.80;;;2.10;;
52608;SDS011;38503;48.544;12.142;2023-03-23T15:40:49;2.57;;;2.37;;
52608;SDS011;38503;48.544;12.142;2023-03-23T15:43:18;4.50;;;2.33;;
52608;SDS011;38503;48.544;12.142;2023-03-23T15:48:25;4.03;;;2.50;;
52608;SDS011;38503;48.544;12.142;2023-03-23T15:50:53;6.97;;;3.10;;
52608;SDS011;38503;48.544;12.142;2023-03-23T15:53:32;6.63;;;2.97;;
52608;SDS011;38503;48.544;12.142;2023-03-23T15:56:01;5.63;;;2.40;;
52608;SDS011;38503;48.544;12.142;2023-03-23T15:58:29;2.77;;;2.50;;
52608;SDS011;38503;48.544;12.142;2023-03-23T16:00:56;2.30;;;2.10;;
52608;SDS011;38503;48.544;12.142;2023-03-23T16:03:26;3.00;;;2.80;;
52608;SDS011;38503;48.544;12.142;2023-03-23T16:05:56;3.30;;;3.00;;
52608;SDS011;38503;48.544;12.142;2023-03-23T16:08:25;4.00;;;3.43;;
52608;SDS011;38503;48.544;12.142;2023-03-23T16:10:52;4.60;;;3.50;;
52608;SDS011;38503;48.544;12.142;2023-03-23T16:13:19;3.87;;;3.23;;
52608;SDS011;38503;48.544;12.142;2023-03-23T16:15:46;5.57;;;3.57;;
52608;SDS011;38503;48.544;12.142;2023-03-23T16:18:17;5.27;;;3.97;;
52608;SDS011;38503;48.544;12.142;2023-03-23T16:20:47;6.30;;;3.67;;
52608;SDS011;38503;48.544;12.142;2023-03-23T16:23:14;6.27;;;3.73;;
52608;SDS011;38503;48.544;12.142;2023-03-23T16:25:42;5.20;;;3.60;;
52608;SDS011;38503;48.544;12.142;2023-03-23T16:28:12;5.57;;;3.30;;
52608;SDS011;38503;48.544;12.142;2023-03-23T16:30:41;4.17;;;3.30;;
52608;SDS011;38503;48.544;12.142;2023-03-23T16:33:08;7.93;;;3.80;;
52608;SDS011;38503;48.544;12.142;2023-03-23T16:35:35;5.90;;;3.30;;
52608;SDS011;38503;48.544;12.142;2023-03-23T16:38:03;16.27;;;3.73;;
52608;SDS011;38503;48.544;12.142;2023-03-23T16:40:33;6.33;;;3.50;;
52608;SDS011;38503;48.544;12.142;2023-03-23T16:43:01;7.93;;;3.60;;
52608;SDS011;38503;48.544;12.142;2023-03-23T16:45:35;4.77;;;4.10;;
52608;SDS011;38503;48.544;12.142;2023-03-23T16:48:04;14.03;;;10.77;;
52608;SDS011;38503;48.544;12.142;2023-03-23T16:50:34;6.50;;;4.83;;
52608;SDS011;38503;48.544;12.142;2023-03-23T16:53:03;9.17;;;5.70;;
52608;SDS011;38503;48.544;12.142;2023-03-23T16:55:31;8.03;;;4.37;;
52608;SDS011;38503;48.544;12.142;2023-03-23T16:57:58;4.50;;;3.07;;
52608;SDS011;38503;48.544;12.142;2023-03-23T17:00:41;7.03;;;3.20;;
52608;SDS011;38503;48.544;12.142;2023-03-23T17:03:09;4.33;;;3.40;;
52608;SDS011;38503;48.544;12.142;2023-03-23T17:05:36;6.67;;;3.50;;
52608;SDS011;38503;48.544;12.142;2023-03-23T17:08:03;6.27;;;2.80;;
52608;SDS011;38503;48.544;12.142;2023-03-23T17:10:31;4.77;;;2.87;;
52608;SDS011;38503;48.544;12.142;2023-03-23T17:12:58;3.70;;;3.10;;
52608;SDS011;38503;48.544;12.142;2023-03-23T17:15:25;7.30;;;3.40;;
52608;SDS011;38503;48.544;12.142;2023-03-23T17:17:52;6.37;;;3.63;;